Sitka Rocky Gutierrez Airport

Date: 2024-06-11 06:53:00Z

Type: METAR

Weather: Light Rain

Winds: 230° at 7 kts

Visibility: 4

Ceiling (AGL FT): Clouds BROKEN at 700, BROKEN at 1200, OVERCAST at 1900, OVERCAST at 5600

RAW METAR: PASI 110653Z 23007KT 4SM -RA BR BKN007 BKN012 OVC019 09/07 A2985 RMK AO2 RAB07 SLP107 P0002 T00890067

project-image